createdAt,value
2022-09-24T00:03:33.617Z,0.59
2022-09-24T00:08:40.071Z,0.53
2022-09-24T00:13:46.782Z,0.58
2022-09-24T00:18:53.205Z,0.57
2022-09-24T00:23:59.937Z,0.79
2022-09-24T00:29:06.259Z,0.63
2022-09-24T00:34:12.844Z,0.63
2022-09-24T00:39:19.205Z,0.36
2022-09-24T00:44:25.927Z,0.66
2022-09-24T00:49:33.354Z,0.45
2022-09-24T00:54:40.731Z,0.46
2022-09-24T00:59:47.076Z,0.56
2022-09-24T01:04:56.617Z,0.55
2022-09-24T01:10:00.653Z,0.62
2022-09-24T01:15:07.507Z,0.41
2022-09-24T01:20:13.977Z,0.63
2022-09-24T01:25:20.702Z,0.94
2022-09-24T01:30:27.084Z,0.60
2022-09-24T01:35:34.928Z,0.61
2022-09-24T01:40:41.325Z,0.68
2022-09-24T01:45:47.992Z,0.50
2022-09-24T01:50:54.488Z,0.79
2022-09-24T01:56:01.166Z,0.66
2022-09-24T02:01:07.568Z,0.52
2022-09-24T02:06:15.656Z,0.55
2022-09-24T02:11:22.466Z,0.59
2022-09-24T02:16:29.192Z,0.51
2022-09-24T02:21:35.526Z,0.60
2022-09-24T02:26:42.442Z,0.40
2022-09-24T02:31:48.817Z,0.49
2022-09-24T02:36:55.490Z,0.62
2022-09-24T02:42:01.888Z,0.57
2022-09-24T02:47:08.243Z,0.66
2022-09-24T02:52:14.487Z,0.49
2022-09-24T02:57:21.134Z,0.74
2022-09-24T03:02:27.617Z,0.59
2022-09-24T03:07:34.701Z,0.54
2022-09-24T03:12:41.595Z,0.62
2022-09-24T03:17:50.339Z,0.81
2022-09-24T03:22:56.692Z,0.42
2022-09-24T03:28:04.611Z,0.73
2022-09-24T03:33:10.968Z,0.35
2022-09-24T03:38:17.684Z,0.56
2022-09-24T03:43:24.003Z,0.52
2022-09-24T03:48:30.643Z,0.84
2022-09-24T03:53:37.003Z,0.55
2022-09-24T03:58:43.636Z,0.48
2022-09-24T04:03:50.010Z,0.62
2022-09-24T04:08:56.620Z,0.63
2022-09-24T04:14:03.534Z,0.47
2022-09-24T04:19:10.203Z,0.63
2022-09-24T04:24:16.544Z,0.58
2022-09-24T04:29:23.168Z,0.51
2022-09-24T04:34:29.536Z,0.59
2022-09-24T04:39:36.239Z,0.58
2022-09-24T04:44:42.576Z,0.54
2022-09-24T04:49:49.370Z,0.79
2022-09-24T04:54:55.807Z,0.44
2022-09-24T05:00:02.489Z,0.46
2022-09-24T05:05:08.846Z,0.67
2022-09-24T05:10:15.686Z,0.54
2022-09-24T05:15:22.212Z,0.58
2022-09-24T05:20:28.927Z,0.63
2022-09-24T05:25:35.243Z,0.46
2022-09-24T05:30:42.026Z,0.61
2022-09-24T05:35:48.367Z,0.53
2022-09-24T05:40:55.225Z,0.54
2022-09-24T05:46:01.602Z,0.45
2022-09-24T05:51:08.188Z,0.55
2022-09-24T05:56:14.542Z,0.55
2022-09-24T06:01:21.274Z,0.56
2022-09-24T06:06:28.400Z,0.47
2022-09-24T06:11:39.807Z,0.56
2022-09-24T06:16:41.243Z,0.63
2022-09-24T06:21:47.972Z,0.52
2022-09-24T06:26:54.393Z,0.52
2022-09-24T06:32:01.136Z,0.71
2022-09-24T06:37:07.517Z,0.55
2022-09-24T06:42:14.131Z,0.46
2022-09-24T06:47:24.602Z,0.55
2022-09-24T06:52:25.474Z,0.59
2022-09-24T06:57:24.233Z,0.67
2022-09-24T07:02:27.333Z,0.56
2022-09-24T07:07:33.513Z,0.56
2022-09-24T07:12:40.258Z,0.42
2022-09-24T07:17:47.302Z,0.61
2022-09-24T07:22:54.013Z,0.36
2022-09-24T07:28:00.366Z,0.48
2022-09-24T07:33:07.966Z,0.41
2022-09-24T07:38:14.320Z,0.52
2022-09-24T07:43:24.877Z,0.24
2022-09-24T07:48:21.057Z,0.28
2022-09-24T07:53:27.716Z,0.41
2022-09-24T07:58:34.075Z,0.27
2022-09-24T08:03:42.076Z,0.56
2022-09-24T08:08:48.614Z,0.21
2022-09-24T08:13:56.142Z,0.34
2022-09-24T08:19:04.566Z,0.23
2022-09-24T08:24:12.559Z,0.29
2022-09-24T08:29:18.919Z,0.30
2022-09-24T08:34:30.370Z,0.47
2022-09-24T08:39:28.092Z,0.39
2022-09-24T08:44:34.459Z,0.42
2022-09-24T08:49:41.734Z,0.28
2022-09-24T08:54:48.455Z,0.33
2022-09-24T08:59:54.808Z,0.45
2022-09-24T09:05:01.538Z,0.34
2022-09-24T09:10:07.921Z,0.39
2022-09-24T09:15:14.747Z,0.33
2022-09-24T09:20:21.658Z,0.32
2022-09-24T09:25:28.293Z,0.31
2022-09-24T09:30:34.653Z,0.26
2022-09-24T09:35:41.328Z,0.50
2022-09-24T09:40:47.758Z,0.45
2022-09-24T09:45:55.022Z,0.17
2022-09-24T09:51:01.638Z,0.39
2022-09-24T09:56:08.391Z,0.32
2022-09-24T10:01:14.873Z,0.34
2022-09-24T10:06:21.633Z,0.46
2022-09-24T10:11:28.043Z,0.64
2022-09-24T10:16:34.809Z,0.32
2022-09-24T10:21:41.674Z,0.33
2022-09-24T10:26:48.528Z,0.25
2022-09-24T10:31:54.948Z,0.33
2022-09-24T10:37:03.527Z,0.22
2022-09-24T10:42:08.363Z,0.37
2022-09-24T10:47:15.804Z,0.24
2022-09-24T10:52:22.370Z,0.30
2022-09-24T10:57:29.200Z,0.31
2022-09-24T11:02:35.705Z,0.48
2022-09-24T11:07:42.401Z,0.41
2022-09-24T11:12:48.809Z,0.31
2022-09-24T11:17:55.503Z,0.50
2022-09-24T11:23:02.852Z,0.41
2022-09-24T11:28:09.536Z,0.50
2022-09-24T11:33:20.756Z,0.29
2022-09-24T11:38:24.182Z,0.30
2022-09-24T11:43:30.726Z,0.29
2022-09-24T11:48:38.259Z,0.42
2022-09-24T11:53:44.685Z,0.35
2022-09-24T11:58:51.359Z,0.50
2022-09-24T12:03:58.301Z,0.25
2022-09-24T12:09:04.939Z,0.67
2022-09-24T12:14:11.361Z,0.37
2022-09-24T12:19:17.945Z,0.38
2022-09-24T12:24:24.574Z,0.33
2022-09-24T12:29:31.329Z,0.28
2022-09-24T12:34:37.824Z,0.25
2022-09-24T12:39:44.690Z,0.37
2022-09-24T12:44:51.053Z,0.33
2022-09-24T12:49:57.823Z,0.48
2022-09-24T12:55:04.233Z,0.37
2022-09-24T13:00:11.019Z,0.36
2022-09-24T13:05:17.549Z,0.32
2022-09-24T13:10:24.338Z,0.42
2022-09-24T13:15:30.724Z,0.35
2022-09-24T13:20:38.016Z,0.34
2022-09-24T13:25:44.386Z,0.30
2022-09-24T13:30:51.219Z,0.33
2022-09-24T13:35:58.060Z,0.25
2022-09-24T13:41:05.401Z,0.33
2022-09-24T13:46:11.848Z,0.29
2022-09-24T13:51:19.033Z,0.23
2022-09-24T13:56:25.772Z,0.30
2022-09-24T14:01:32.689Z,0.22
2022-09-24T14:06:39.103Z,0.30
2022-09-24T14:11:46.002Z,0.26
2022-09-24T14:16:52.501Z,0.23
2022-09-24T14:21:59.283Z,0.31
2022-09-24T14:27:06.175Z,0.23
2022-09-24T14:32:13.014Z,0.23
2022-09-24T14:37:19.428Z,0.28
2022-09-24T14:42:26.250Z,0.17
2022-09-24T14:47:32.674Z,0.19
2022-09-24T14:52:45.786Z,0.30
2022-09-24T14:57:46.084Z,0.20
2022-09-24T15:02:49.959Z,0.21
2022-09-24T15:07:56.315Z,0.21
2022-09-24T15:13:03.787Z,0.20
2022-09-24T15:18:10.162Z,0.20
2022-09-24T15:23:17.017Z,0.27
2022-09-24T15:28:23.985Z,0.22
2022-09-24T15:33:30.901Z,0.16
2022-09-24T15:38:37.289Z,0.21
2022-09-24T15:43:44.095Z,0.14
2022-09-24T15:48:50.453Z,0.15
2022-09-24T15:53:57.203Z,0.21
2022-09-24T15:59:03.567Z,0.16
2022-09-24T16:04:10.472Z,0.18
2022-09-24T16:09:16.770Z,0.19
2022-09-24T16:14:23.547Z,0.10
2022-09-24T16:19:29.970Z,0.14
2022-09-24T16:24:36.756Z,0.25
2022-09-24T16:29:43.699Z,0.14
2022-09-24T16:34:50.441Z,0.29
2022-09-24T16:39:56.784Z,0.26
2022-09-24T16:45:03.983Z,0.17
2022-09-24T16:50:10.658Z,0.18
2022-09-24T16:55:20.234Z,0.26
2022-09-24T17:00:26.701Z,0.19
2022-09-24T17:05:38.349Z,0.24
2022-09-24T17:10:34.671Z,0.17
2022-09-24T17:15:42.291Z,0.34
2022-09-24T17:26:08.475Z,0.31
2022-09-24T17:31:08.170Z,0.31
2022-09-24T17:36:10.975Z,0.17
2022-09-24T17:41:36.058Z,0.09
2022-09-24T17:46:18.246Z,0.16
2022-09-24T17:51:19.950Z,0.17
2022-09-24T17:56:18.044Z,0.22
2022-09-24T18:06:36.771Z,0.17
2022-09-24T18:11:32.069Z,0.28
2022-09-24T18:16:51.514Z,0.14
2022-09-24T18:22:04.576Z,0.10
2022-09-24T18:26:55.965Z,0.20
2022-09-24T18:32:02.294Z,0.11
2022-09-24T18:37:09.512Z,0.16
2022-09-24T18:42:15.891Z,0.09
2022-09-24T18:47:23.683Z,0.12
2022-09-24T18:52:30.059Z,0.30
2022-09-24T18:57:36.805Z,0.09
2022-09-24T19:02:43.247Z,0.15
2022-09-24T19:07:49.868Z,0.28
2022-09-24T19:12:56.282Z,0.39
2022-09-24T19:18:02.945Z,0.13
2022-09-24T19:23:10.326Z,0.13
2022-09-24T19:28:20.347Z,0.21
2022-09-24T19:33:16.663Z,0.18
2022-09-24T19:38:24.167Z,0.08
2022-09-24T19:43:30.740Z,0.19
2022-09-24T19:48:38.242Z,0.20
2022-09-24T19:53:45.256Z,0.14
2022-09-24T19:58:53.651Z,0.10
2022-09-24T20:04:00.733Z,0.09
2022-09-24T20:09:08.151Z,0.09
2022-09-24T20:14:14.527Z,0.12
2022-09-24T20:19:21.213Z,0.17
2022-09-24T20:24:27.567Z,0.05
2022-09-24T20:29:34.341Z,0.14
2022-09-24T20:34:40.752Z,0.16
2022-09-24T20:39:47.503Z,0.15
2022-09-24T20:44:54.363Z,0.23
2022-09-24T20:50:01.105Z,0.10
2022-09-24T20:55:07.477Z,0.10
2022-09-24T21:00:14.175Z,0.17
2022-09-24T21:05:20.567Z,0.15
2022-09-24T21:10:27.221Z,0.19
2022-09-24T21:15:33.636Z,0.20
2022-09-24T21:20:40.201Z,0.06
2022-09-24T21:25:54.393Z,0.17
2022-09-24T21:30:52.829Z,0.11
2022-09-24T21:35:59.175Z,0.23
2022-09-24T21:41:05.875Z,0.15
2022-09-24T21:46:12.271Z,0.16
2022-09-24T21:51:18.938Z,0.16
2022-09-24T21:56:25.298Z,0.15
2022-09-24T22:01:32.145Z,0.20
2022-09-24T22:06:38.321Z,0.32
2022-09-24T22:11:45.600Z,0.12
2022-09-24T22:16:52.004Z,0.12
2022-09-24T22:21:58.672Z,0.15
2022-09-24T22:27:05.010Z,0.13
2022-09-24T22:32:12.379Z,0.18
2022-09-24T22:37:18.759Z,0.15
2022-09-24T22:42:26.135Z,0.14
2022-09-24T22:47:34.600Z,0.17
2022-09-24T22:52:41.074Z,0.11
2022-09-24T22:57:47.445Z,0.20
2022-09-24T23:02:54.226Z,0.10
2022-09-24T23:08:01.089Z,0.15
2022-09-24T23:13:08.466Z,0.28
2022-09-24T23:18:14.835Z,0.19
2022-09-24T23:23:22.309Z,0.19
2022-09-24T23:28:28.674Z,0.18
2022-09-24T23:33:35.287Z,0.21
2022-09-24T23:38:41.692Z,0.11
2022-09-24T23:43:48.387Z,0.10
2022-09-24T23:48:54.748Z,0.10
2022-09-24T23:54:02.173Z,0.12
2022-09-24T23:59:08.541Z,0.24
